Time;durP1;ratioP1;P1;durP2;ratioP2;P2;SDS_P1;SDS_P2;PMS_P1;PMS_P2;Temp;Humidity;BMP_temperature;BMP_pressure;BME280_temperature;BME280_humidity;BME280_pressure;Samples;Min_cycle;Max_cycle;Signal;HPM_P1;HPM_P2
2023/01/24 00:00:38;;;;;;;44.45;19.40;;;4.00;99.90;;;;;;5050498;28;20037;-75
2023/01/24 00:03:03;;;;;;;45.03;20.30;;;4.00;99.90;;;;;;5054140;28;20031;-76
2023/01/24 00:05:29;;;;;;;42.45;19.02;;;3.90;99.90;;;;;;5059018;28;20036;-75
2023/01/24 00:07:55;;;;;;;46.92;19.65;;;4.00;99.90;;;;;;5051848;28;20053;-76
2023/01/24 00:10:22;;;;;;;43.58;18.58;;;4.00;99.90;;;;;;5055820;28;20081;-75
2023/01/24 00:12:47;;;;;;;40.40;18.17;;;4.00;99.90;;;;;;5049961;28;20041;-77
2023/01/24 00:15:13;;;;;;;43.53;19.17;;;4.00;99.90;;;;;;5046639;28;20028;-75
2023/01/24 00:17:39;;;;;;;43.28;19.33;;;4.00;99.90;;;;;;5052239;28;20038;-76
2023/01/24 00:20:05;;;;;;;44.25;18.73;;;4.00;99.90;;;;;;5050226;28;20387;-76
2023/01/24 00:22:31;;;;;;;45.40;19.05;;;4.00;99.90;;;;;;5052154;28;20083;-76
2023/01/24 00:24:56;;;;;;;51.65;19.67;;;4.00;99.90;;;;;;5051261;28;21046;-76
2023/01/24 00:27:22;;;;;;;44.13;18.60;;;3.90;99.90;;;;;;5048425;28;20025;-72
2023/01/24 00:29:48;;;;;;;42.10;19.30;;;3.90;99.90;;;;;;5058062;28;20089;-74
2023/01/24 00:32:13;;;;;;;43.55;18.58;;;3.90;99.90;;;;;;5043341;28;20026;-74
2023/01/24 00:34:39;;;;;;;43.28;19.85;;;3.90;99.90;;;;;;5047391;28;20052;-74
2023/01/24 00:37:05;;;;;;;47.00;19.63;;;4.00;99.90;;;;;;5047272;28;20072;-73
2023/01/24 00:39:30;;;;;;;47.13;18.65;;;4.00;99.90;;;;;;5062345;28;20026;-73
2023/01/24 00:41:56;;;;;;;49.25;19.88;;;4.00;99.90;;;;;;5047001;28;20025;-75
2023/01/24 00:44:21;;;;;;;44.33;19.77;;;4.00;99.90;;;;;;5062005;28;20025;-75
2023/01/24 00:46:50;;;;;;;40.67;18.17;;;4.00;99.90;;;;;;5062276;28;20021;-75
2023/01/24 00:49:15;;;;;;;44.17;19.50;;;3.90;99.90;;;;;;5046839;28;20029;-75
2023/01/24 00:51:41;;;;;;;47.00;19.60;;;3.90;99.90;;;;;;5047057;28;20041;-76
2023/01/24 00:54:07;;;;;;;42.15;19.42;;;3.90;99.90;;;;;;5062302;28;20064;-75
2023/01/24 00:56:32;;;;;;;44.05;19.85;;;3.90;99.90;;;;;;5046663;28;20033;-75
2023/01/24 00:58:58;;;;;;;42.67;19.15;;;3.90;99.90;;;;;;5047403;28;20059;-75
2023/01/24 01:01:23;;;;;;;44.10;19.35;;;3.90;99.90;;;;;;5079904;28;20385;-77
2023/01/24 01:03:49;;;;;;;45.22;19.27;;;3.90;99.90;;;;;;5073307;28;20021;-76
2023/01/24 01:06:16;;;;;;;41.95;19.40;;;3.90;99.90;;;;;;5065351;28;20032;-75
2023/01/24 01:08:42;;;;;;;46.50;19.83;;;4.10;99.90;;;;;;5059686;28;20025;-74
2023/01/24 01:11:08;;;;;;;42.67;19.00;;;3.90;99.90;;;;;;5047864;28;20105;-74
2023/01/24 01:13:34;;;;;;;43.25;19.63;;;4.00;99.90;;;;;;5045503;28;20040;-74
2023/01/24 01:16:07;;;;;;;43.60;19.17;;;3.90;99.90;;;;;;5054566;28;20743;-75
2023/01/24 01:18:34;;;;;;;41.67;18.80;;;3.90;99.90;;;;;;5044774;28;20037;-73
2023/01/24 01:21:00;;;;;;;42.58;18.92;;;3.90;99.90;;;;;;5045033;28;20029;-73
2023/01/24 01:23:26;;;;;;;43.30;18.00;;;3.90;99.90;;;;;;5045763;28;20061;-73
2023/01/24 01:25:52;;;;;;;46.28;18.65;;;3.90;99.90;;;;;;5044146;28;20074;-74
2023/01/24 01:28:17;;;;;;;44.78;18.92;;;3.90;99.90;;;;;;5044320;28;20025;-74
2023/01/24 01:30:53;;;;;;;37.38;17.77;;;3.90;99.90;;;;;;5046473;28;20526;-74
2023/01/24 01:33:19;;;;;;;38.80;16.90;;;4.00;99.90;;;;;;5045939;28;20060;-73
2023/01/24 01:35:48;;;;;;;40.65;19.02;;;3.90;99.90;;;;;;5046275;28;20025;-73
2023/01/24 01:38:14;;;;;;;41.42;19.00;;;3.90;99.90;;;;;;5046447;28;20098;-74
2023/01/24 01:40:43;;;;;;;39.58;18.42;;;3.90;99.90;;;;;;5044830;28;20025;-74
2023/01/24 01:43:15;;;;;;;41.45;17.80;;;3.80;99.90;;;;;;5062355;28;20567;-75
2023/01/24 01:45:45;;;;;;;40.10;18.38;;;3.90;99.90;;;;;;5065641;28;20092;-75
2023/01/24 01:48:33;;;;;;;37.35;17.40;;;3.90;99.90;;;;;;5057584;28;20029;-74
2023/01/24 01:51:08;;;;;;;37.63;16.83;;;3.90;99.90;;;;;;5051936;28;20033;-74
2023/01/24 01:53:40;;;;;;;41.38;17.02;;;3.90;99.90;;;;;;5058924;28;20021;-75
2023/01/24 01:56:12;;;;;;;43.58;17.85;;;4.00;99.90;;;;;;5054788;28;20021;-76
2023/01/24 01:58:39;;;;;;;38.17;17.52;;;3.90;99.90;;;;;;5056587;28;20064;-76
2023/01/24 02:01:05;;;;;;;36.75;17.23;;;3.90;99.90;;;;;;5045761;28;20022;-76
2023/01/24 02:03:46;;;;;;;41.58;17.60;;;3.90;99.90;;;;;;5044292;28;20025;-75
2023/01/24 02:06:50;;;;;;;40.90;17.00;;;3.90;99.90;;;;;;5063735;28;20109;-76
2023/01/24 02:09:20;;;;;;;36.53;17.13;;;3.90;99.90;;;;;;5063166;28;20780;-75
2023/01/24 02:11:47;;;;;;;35.78;17.45;;;3.90;99.90;;;;;;5063770;28;20025;-76
2023/01/24 02:17:05;;;;;;;34.45;16.52;;;4.00;99.90;;;;;;5073390;28;20139;-75
2023/01/24 02:19:46;;;;;;;38.05;17.42;;;3.90;99.90;;;;;;5064797;28;20037;-74
2023/01/24 02:22:33;;;;;;;38.47;16.60;;;3.90;99.90;;;;;;5065011;28;20051;-76
2023/01/24 02:25:09;;;;;;;34.78;16.33;;;3.90;99.90;;;;;;5065064;28;20032;-76
2023/01/24 02:27:35;;;;;;;34.80;15.10;;;3.90;99.90;;;;;;5050269;28;20095;-74
2023/01/24 02:30:01;;;;;;;33.85;16.23;;;3.90;99.90;;;;;;5051870;28;20080;-75
2023/01/24 02:32:26;;;;;;;36.40;15.70;;;3.90;99.90;;;;;;5045048;28;20363;-75
2023/01/24 02:34:52;;;;;;;38.00;15.70;;;3.90;99.90;;;;;;5044260;28;20025;-74
2023/01/24 02:37:18;;;;;;;34.58;15.15;;;3.90;99.90;;;;;;5044002;28;20044;-75
2023/01/24 02:40:01;;;;;;;33.10;15.43;;;3.90;99.90;;;;;;5042707;28;20088;-76
2023/01/24 02:42:36;;;;;;;32.00;15.32;;;3.90;99.90;;;;;;5041296;28;20032;-74
2023/01/24 02:45:22;;;;;;;35.42;15.23;;;3.90;99.90;;;;;;5042807;28;20026;-73
2023/01/24 02:47:50;;;;;;;30.33;14.55;;;3.90;99.90;;;;;;5044709;28;20026;-74
2023/01/24 02:50:18;;;;;;;34.25;15.32;;;3.90;99.90;;;;;;5044089;28;20115;-75
2023/01/24 02:55:28;;;;;;;35.63;16.17;;;4.00;99.90;;;;;;5044200;28;20449;-74
2023/01/24 02:58:07;;;;;;;34.55;15.35;;;3.90;99.90;;;;;;5043724;28;20038;-73
2023/01/24 03:00:41;;;;;;;31.33;15.27;;;4.00;99.90;;;;;;5044271;28;20034;-73
2023/01/24 03:03:08;;;;;;;34.72;15.40;;;4.00;99.90;;;;;;5043281;28;20033;-74
2023/01/24 03:05:56;;;;;;;30.63;15.15;;;4.00;99.90;;;;;;5044241;28;20048;-74
2023/01/24 03:08:23;;;;;;;29.65;14.05;;;4.00;99.90;;;;;;5044300;28;20025;-74
2023/01/24 03:10:49;;;;;;;29.20;14.52;;;4.00;99.90;;;;;;5043944;28;20021;-76
2023/01/24 03:35:10;;;;;;;25.63;12.98;;;3.90;99.90;;;;;;5044349;28;19968;-75
2023/01/24 03:40:20;;;;;;;35.97;15.23;;;3.90;99.90;;;;;;5043961;28;20056;-74
2023/01/24 03:42:48;;;;;;;31.52;14.18;;;4.00;99.90;;;;;;5044031;28;20029;-74
2023/01/24 03:45:18;;;;;;;29.63;14.27;;;3.90;99.90;;;;;;5043943;28;20029;-74
2023/01/24 03:47:55;;;;;;;28.25;13.57;;;3.90;99.90;;;;;;5043456;28;20029;-75
2023/01/24 03:53:12;;;;;;;24.85;11.93;;;3.90;99.90;;;;;;5043639;28;20091;-75
2023/01/24 03:55:41;;;;;;;25.42;12.13;;;3.80;99.90;;;;;;5041752;28;20045;-75
2023/01/24 03:58:08;;;;;;;27.05;13.38;;;3.80;99.90;;;;;;5058381;28;20104;-76
2023/01/24 04:00:35;;;;;;;24.27;12.73;;;3.80;99.90;;;;;;5062471;28;20022;-74
2023/01/24 04:03:00;;;;;;;28.13;12.52;;;3.80;99.90;;;;;;5078971;28;20032;-74
2023/01/24 04:05:27;;;;;;;28.67;13.55;;;3.80;99.90;;;;;;5063734;28;20075;-75
2023/01/24 04:07:56;;;;;;;30.85;13.70;;;3.80;99.90;;;;;;5081764;28;20029;-75
2023/01/24 04:10:22;;;;;;;24.48;13.15;;;3.90;99.90;;;;;;5082184;28;20107;-76
2023/01/24 04:12:48;;;;;;;25.55;12.70;;;3.90;99.90;;;;;;5065397;28;20155;-76
2023/01/24 04:15:27;;;;;;;28.08;13.50;;;3.80;99.90;;;;;;5081951;28;20497;-75
2023/01/24 04:17:57;;;;;;;28.73;13.43;;;3.90;99.90;;;;;;5082401;28;20136;-75
2023/01/24 04:20:24;;;;;;;30.77;13.82;;;3.80;99.90;;;;;;5082968;28;20449;-74
2023/01/24 04:22:50;;;;;;;29.40;13.10;;;3.80;99.90;;;;;;5066994;28;20128;-76
2023/01/24 04:25:15;;;;;;;30.55;13.00;;;3.80;99.90;;;;;;5067446;28;20075;-77
2023/01/24 04:27:41;;;;;;;28.73;12.52;;;3.80;99.90;;;;;;5067592;28;20080;-76
2023/01/24 04:30:09;;;;;;;27.38;13.07;;;3.80;99.90;;;;;;5067447;28;20494;-75
2023/01/24 04:32:35;;;;;;;31.52;14.20;;;3.80;99.90;;;;;;5067335;28;20035;-75
2023/01/24 04:35:03;;;;;;;29.23;13.75;;;3.80;99.90;;;;;;5065672;28;20029;-80
2023/01/24 04:37:29;;;;;;;24.27;12.65;;;3.80;99.90;;;;;;5064821;28;20037;-76
2023/01/24 04:39:55;;;;;;;28.27;12.88;;;3.80;99.90;;;;;;5066288;28;20033;-74
2023/01/24 04:42:20;;;;;;;26.67;12.35;;;3.80;99.90;;;;;;5066315;28;20076;-74
2023/01/24 04:44:46;;;;;;;29.58;13.60;;;3.80;99.90;;;;;;5064966;28;20025;-76
2023/01/24 04:47:12;;;;;;;29.58;13.93;;;3.90;99.90;;;;;;5064833;28;20071;-75
2023/01/24 04:49:38;;;;;;;26.55;12.25;;;3.80;99.90;;;;;;5065779;28;20029;-75
2023/01/24 04:52:04;;;;;;;27.42;12.95;;;3.90;99.90;;;;;;5065306;28;20032;-75
2023/01/24 04:54:29;;;;;;;27.35;13.43;;;3.90;99.90;;;;;;5065362;28;20100;-75
2023/01/24 04:56:55;;;;;;;28.80;13.38;;;3.80;99.90;;;;;;5066330;28;20032;-76
2023/01/24 04:59:21;;;;;;;24.15;12.52;;;3.80;99.90;;;;;;5066083;28;20028;-76
2023/01/24 05:01:46;;;;;;;26.35;12.88;;;3.80;99.90;;;;;;5065781;28;20049;-73
2023/01/24 05:04:12;;;;;;;28.80;13.77;;;3.70;99.90;;;;;;5064772;28;20029;-75
2023/01/24 05:06:37;;;;;;;32.03;15.25;;;3.70;99.90;;;;;;5064551;28;20021;-74
2023/01/24 05:09:03;;;;;;;25.25;12.48;;;3.70;99.90;;;;;;5064240;28;20039;-75
2023/01/24 05:11:29;;;;;;;28.20;12.65;;;3.70;99.90;;;;;;5065734;28;20032;-75
2023/01/24 05:13:55;;;;;;;27.05;13.80;;;3.70;99.90;;;;;;5066388;28;20025;-75
2023/01/24 05:16:20;;;;;;;28.60;13.43;;;3.70;99.90;;;;;;5065606;28;20100;-76
2023/01/24 05:18:47;;;;;;;24.10;11.02;;;3.80;99.90;;;;;;5065106;28;20037;-74
2023/01/24 05:21:17;;;;;;;23.92;11.55;;;3.80;99.90;;;;;;5065022;28;20025;-74
2023/01/24 05:23:47;;;;;;;23.00;11.75;;;3.70;99.90;;;;;;5063632;28;20057;-75
2023/01/24 05:26:13;;;;;;;27.77;12.32;;;3.70;99.90;;;;;;5060043;28;20037;-76
2023/01/24 05:28:38;;;;;;;25.40;12.70;;;3.70;99.90;;;;;;5053181;28;20029;-76
2023/01/24 05:31:08;;;;;;;23.63;12.02;;;3.70;99.90;;;;;;5081149;28;20057;-74
2023/01/24 05:33:33;;;;;;;28.77;13.10;;;3.70;99.90;;;;;;5065517;28;20064;-76
2023/01/24 05:36:07;;;;;;;24.75;12.32;;;3.70;99.90;;;;;;5064205;28;20029;-76
2023/01/24 05:38:33;;;;;;;27.00;11.48;;;3.60;99.90;;;;;;5045455;28;20043;-75
2023/01/24 05:41:00;;;;;;;23.67;12.02;;;3.60;99.90;;;;;;5043780;28;20162;-76
2023/01/24 05:43:27;;;;;;;25.77;11.82;;;3.60;99.90;;;;;;5043211;28;20673;-76
2023/01/24 05:45:58;;;;;;;26.42;13.23;;;3.60;99.90;;;;;;5045043;28;20033;-78
2023/01/24 05:48:23;;;;;;;29.30;12.95;;;3.60;99.90;;;;;;5043752;28;20029;-77
2023/01/24 05:50:49;;;;;;;29.63;14.00;;;3.70;99.90;;;;;;5044967;28;20025;-77
2023/01/24 05:53:14;;;;;;;29.83;14.30;;;3.60;99.90;;;;;;5045245;28;20045;-76
2023/01/24 05:55:40;;;;;;;27.58;13.27;;;3.60;99.90;;;;;;5056604;28;20048;-76
2023/01/24 05:58:05;;;;;;;29.58;14.70;;;3.60;99.90;;;;;;5065626;28;20410;-75
2023/01/24 06:00:31;;;;;;;34.58;14.57;;;3.70;99.90;;;;;;5064993;28;20028;-75
2023/01/24 06:03:01;;;;;;;31.92;14.57;;;3.70;99.90;;;;;;5064149;28;20021;-77
2023/01/24 06:05:27;;;;;;;32.53;15.05;;;3.70;99.90;;;;;;5079773;28;20032;-76
2023/01/24 06:07:53;;;;;;;29.27;14.18;;;3.70;99.90;;;;;;5065226;28;20037;-75
2023/01/24 06:10:21;;;;;;;31.05;14.10;;;3.70;99.90;;;;;;5062988;28;20032;-77
2023/01/24 06:12:47;;;;;;;29.85;13.30;;;3.70;99.90;;;;;;5063932;28;20063;-76
2023/01/24 06:15:13;;;;;;;29.55;13.73;;;3.70;99.90;;;;;;5064023;28;20029;-75
2023/01/24 06:17:39;;;;;;;29.95;13.45;;;3.70;99.90;;;;;;5065342;28;20135;-78
2023/01/24 06:20:06;;;;;;;31.33;14.75;;;3.70;99.90;;;;;;5065211;28;20031;-78
2023/01/24 06:22:44;;;;;;;29.73;14.48;;;3.70;99.90;;;;;;5076406;28;20037;-75
2023/01/24 06:25:22;;;;;;;30.40;14.00;;;3.70;99.90;;;;;;5055825;28;20033;-75
2023/01/24 06:27:49;;;;;;;31.17;14.50;;;3.70;99.90;;;;;;5045384;28;20077;-76
2023/01/24 06:30:16;;;;;;;30.73;13.60;;;3.60;99.90;;;;;;5044963;28;20082;-75
2023/01/24 06:33:10;;;;;;;27.27;13.05;;;3.60;99.90;;;;;;5047606;28;20026;-75
2023/01/24 06:35:36;;;;;;;;;;;3.60;99.90;;;;;;5044266;28;20097;-74
2023/01/24 06:38:02;;;;;;;32.72;14.73;;;3.60;99.90;;;;;;5061713;28;19943;-76
2023/01/24 06:40:30;;;;;;;31.40;14.80;;;3.60;99.90;;;;;;5053142;28;20022;-75
2023/01/24 06:42:56;;;;;;;32.55;13.50;;;3.60;99.90;;;;;;5043809;28;20021;-74
2023/01/24 06:45:22;;;;;;;28.27;14.32;;;3.60;99.90;;;;;;5054478;28;20033;-74
2023/01/24 06:47:57;;;;;;;31.45;14.43;;;3.60;99.90;;;;;;5048577;28;20029;-75
2023/01/24 06:50:23;;;;;;;29.35;13.88;;;3.50;99.90;;;;;;5048675;28;20087;-75
2023/01/24 06:52:50;;;;;;;32.05;14.82;;;3.60;99.90;;;;;;5058182;28;20029;-76
2023/01/24 06:55:15;;;;;;;29.20;14.32;;;3.50;99.90;;;;;;5047909;28;20064;-75
2023/01/24 06:57:41;;;;;;;28.75;13.85;;;3.50;99.90;;;;;;5047792;28;20115;-75
2023/01/24 07:00:07;;;;;;;28.15;13.90;;;3.50;99.90;;;;;;5046642;28;20037;-73
2023/01/24 07:02:33;;;;;;;31.13;14.02;;;3.50;99.90;;;;;;5050209;28;20030;-75
2023/01/24 07:04:58;;;;;;;31.73;14.80;;;3.50;99.90;;;;;;5053357;28;20020;-75
2023/01/24 07:07:24;;;;;;;32.60;14.68;;;3.60;99.90;;;;;;5062013;28;20082;-74
2023/01/24 07:09:49;;;;;;;33.80;14.80;;;3.40;99.90;;;;;;5063598;28;20031;-75
2023/01/24 07:12:15;;;;;;;33.30;15.00;;;3.60;99.90;;;;;;5062252;28;20031;-75
2023/01/24 07:14:41;;;;;;;32.83;16.17;;;3.60;99.90;;;;;;5063600;28;20064;-74
2023/01/24 07:17:07;;;;;;;29.67;14.50;;;3.60;99.90;;;;;;5062124;28;20039;-74
2023/01/24 07:19:32;;;;;;;34.70;15.23;;;3.60;99.90;;;;;;5062005;28;20062;-74
2023/01/24 07:21:58;;;;;;;29.38;13.55;;;3.50;99.90;;;;;;5062360;28;20029;-75
2023/01/24 07:24:33;;;;;;;30.45;14.40;;;3.50;99.90;;;;;;5057901;28;20045;-76
2023/01/24 07:26:59;;;;;;;37.75;14.70;;;3.50;99.90;;;;;;5051446;28;20037;-75
2023/01/24 07:29:25;;;;;;;30.90;14.30;;;3.50;99.90;;;;;;5044878;28;20053;-74
2023/01/24 07:31:52;;;;;;;30.88;14.18;;;3.50;99.90;;;;;;5070335;28;20021;-75
2023/01/24 07:34:18;;;;;;;27.85;13.23;;;3.60;99.90;;;;;;5064000;28;20028;-75
2023/01/24 07:36:45;;;;;;;27.15;13.63;;;3.40;99.90;;;;;;5063956;28;20104;-75
2023/01/24 07:39:11;;;;;;;29.88;13.32;;;3.40;99.90;;;;;;5062866;28;20104;-75
2023/01/24 07:41:37;;;;;;;27.65;13.27;;;3.40;99.90;;;;;;5078860;28;20037;-75
2023/01/24 07:44:05;;;;;;;30.52;13.88;;;3.40;99.90;;;;;;5062673;28;20033;-76
2023/01/24 07:46:35;;;;;;;30.80;13.88;;;3.40;99.90;;;;;;5079389;28;20383;-74
2023/01/24 07:49:01;;;;;;;32.50;13.98;;;3.40;99.90;;;;;;5064038;28;20029;-75
2023/01/24 07:51:27;;;;;;;26.63;13.43;;;3.40;99.90;;;;;;5063791;28;20032;-74
2023/01/24 07:53:52;;;;;;;29.27;14.18;;;3.50;99.90;;;;;;5062185;28;20029;-75
2023/01/24 07:56:18;;;;;;;30.80;13.02;;;3.50;99.90;;;;;;5049029;28;20021;-75
2023/01/24 07:58:45;;;;;;;31.10;13.93;;;3.50;99.90;;;;;;5052838;28;20041;-76
2023/01/24 08:01:19;;;;;;;31.98;15.32;;;3.50;99.90;;;;;;5069033;28;20033;-76
2023/01/24 08:03:46;;;;;;;;;;;3.40;99.90;;;;;;5071987;28;20040;-74
2023/01/24 08:06:13;;;;;;;30.60;13.18;;;3.50;99.90;;;;;;5045548;28;19932;-75
2023/01/24 08:08:38;;;;;;;28.15;13.32;;;3.50;99.90;;;;;;5042682;28;20026;-75
2023/01/24 08:11:04;;;;;;;33.33;13.77;;;3.50;99.90;;;;;;5043670;28;20022;-76
2023/01/24 08:13:30;;;;;;;28.13;13.32;;;3.50;99.90;;;;;;5046774;28;20044;-75
2023/01/24 08:15:55;;;;;;;29.42;13.13;;;3.50;99.90;;;;;;5053234;28;20041;-75
2023/01/24 08:18:21;;;;;;;27.50;12.82;;;3.50;99.90;;;;;;5049130;28;20029;-75
2023/01/24 08:20:46;;;;;;;29.70;13.30;;;3.50;99.90;;;;;;5043660;28;20032;-75
2023/01/24 08:23:12;;;;;;;27.50;12.52;;;3.50;99.90;;;;;;5042424;28;20050;-76
2023/01/24 08:25:37;;;;;;;23.65;11.68;;;3.50;99.90;;;;;;5061991;28;20036;-76
2023/01/24 08:28:03;;;;;;;26.25;12.73;;;3.50;99.90;;;;;;5061865;28;20120;-76
2023/01/24 08:30:29;;;;;;;29.15;10.85;;;3.50;99.90;;;;;;5055854;28;20116;-73
2023/01/24 08:33:05;;;;;;;28.92;13.48;;;3.50;99.90;;;;;;5043532;28;20036;-75
2023/01/24 08:35:32;;;;;;;29.73;14.15;;;3.50;99.90;;;;;;5050598;28;20158;-76
2023/01/24 08:37:57;;;;;;;27.60;13.05;;;3.50;99.90;;;;;;5078625;28;20041;-76
2023/01/24 08:40:23;;;;;;;28.95;13.68;;;3.40;99.90;;;;;;5063395;28;20028;-75
2023/01/24 08:42:49;;;;;;;28.52;13.32;;;3.40;99.90;;;;;;5078693;28;20067;-74
2023/01/24 08:45:14;;;;;;;26.40;12.48;;;3.30;99.90;;;;;;5062263;28;20078;-76
2023/01/24 08:47:40;;;;;;;27.23;13.40;;;3.40;99.90;;;;;;5051947;28;20033;-76
2023/01/24 08:50:06;;;;;;;28.98;13.85;;;3.40;99.90;;;;;;5042210;28;20033;-75
2023/01/24 08:52:32;;;;;;;27.48;12.65;;;3.40;99.90;;;;;;5052031;28;20129;-74
2023/01/24 08:54:58;;;;;;;26.80;13.38;;;3.40;99.90;;;;;;5054882;28;20065;-77
2023/01/24 08:57:23;;;;;;;29.88;13.52;;;3.40;99.90;;;;;;5061383;28;20033;-74
2023/01/24 08:59:49;;;;;;;29.25;13.70;;;3.50;99.90;;;;;;5046734;28;20108;-74
2023/01/24 09:02:16;;;;;;;29.08;13.35;;;3.40;99.90;;;;;;5045529;28;20029;-74
2023/01/24 09:04:42;;;;;;;25.23;12.20;;;3.50;99.90;;;;;;5052724;28;20627;-73
2023/01/24 09:07:10;;;;;;;28.52;13.80;;;3.50;99.90;;;;;;5055378;28;20048;-75
2023/01/24 09:09:35;;;;;;;29.02;13.27;;;3.60;99.90;;;;;;5045365;28;20032;-74
2023/01/24 09:12:01;;;;;;;25.48;12.43;;;3.50;99.90;;;;;;5046748;28;20029;-74
2023/01/24 09:14:26;;;;;;;31.65;14.20;;;3.50;99.90;;;;;;5055914;28;20025;-73
2023/01/24 09:16:52;;;;;;;29.80;13.13;;;3.50;99.90;;;;;;5062087;28;20037;-73
2023/01/24 09:19:17;;;;;;;25.80;12.38;;;3.50;99.90;;;;;;5052634;28;20032;-73
2023/01/24 09:21:44;;;;;;;24.45;12.30;;;3.40;99.90;;;;;;5078080;28;20037;-75
2023/01/24 09:24:13;;;;;;;23.05;11.60;;;3.40;99.90;;;;;;5047935;28;20053;-77
2023/01/24 09:26:39;;;;;;;28.55;13.05;;;3.40;99.90;;;;;;5050529;28;20030;-75
2023/01/24 09:29:04;;;;;;;26.02;11.85;;;3.40;99.90;;;;;;5047802;28;20022;-75
2023/01/24 09:31:30;;;;;;;23.27;10.85;;;3.40;99.90;;;;;;5053975;28;20028;-76
2023/01/24 09:33:56;;;;;;;28.83;13.02;;;3.40;99.90;;;;;;5060387;28;20024;-76
2023/01/24 09:36:21;;;;;;;32.85;13.27;;;3.40;99.90;;;;;;5058413;28;20029;-75
2023/01/24 09:38:47;;;;;;;24.70;12.05;;;3.50;99.90;;;;;;5063794;28;20047;-76
2023/01/24 09:41:37;;;;;;;29.70;12.65;;;3.40;99.90;;;;;;5056709;28;20022;-77
2023/01/24 09:44:28;;;;;;;27.75;13.10;;;3.50;99.90;;;;;;5057124;28;20068;-74
2023/01/24 09:46:55;;;;;;;26.08;12.63;;;3.50;99.90;;;;;;5054079;28;20068;-78
2023/01/24 09:49:20;;;;;;;28.52;12.75;;;3.60;99.90;;;;;;5055416;28;20989;-74
2023/01/24 09:51:53;;;;;;;28.23;13.57;;;3.50;99.90;;;;;;5062662;28;20032;-76
2023/01/24 09:54:38;;;;;;;29.40;13.30;;;3.50;99.90;;;;;;5051759;28;20397;-74
2023/01/24 09:57:19;;;;;;;27.92;13.40;;;3.50;99.90;;;;;;5063364;28;20033;-74
2023/01/24 09:59:52;;;;;;;30.90;14.05;;;3.50;99.90;;;;;;5056995;28;20013;-75
2023/01/24 10:02:20;;;;;;;31.07;12.63;;;3.50;99.90;;;;;;5051584;28;20112;-77
2023/01/24 10:04:48;;;;;;;31.13;14.52;;;3.60;99.90;;;;;;5046170;28;20148;-76
2023/01/24 10:07:20;;;;;;;30.45;14.07;;;3.60;99.90;;;;;;5045648;28;20080;-73
2023/01/24 10:10:23;;;;;;;30.77;14.75;;;3.60;99.90;;;;;;5045321;28;20064;-74
2023/01/24 10:13:14;;;;;;;28.80;13.30;;;3.60;99.90;;;;;;5056839;28;20024;-74
2023/01/24 10:16:07;;;;;;;30.20;14.20;;;3.50;99.90;;;;;;5043550;28;20097;-76
2023/01/24 10:18:53;;;;;;;31.42;14.25;;;3.60;99.90;;;;;;5051897;28;20049;-75
2023/01/24 10:21:57;;;;;;;30.17;13.65;;;3.60;99.90;;;;;;5047543;28;20470;-75
2023/01/24 10:24:31;;;;;;;30.95;13.90;;;3.60;99.90;;;;;;5058869;28;20057;-75
2023/01/24 10:26:59;;;;;;;29.80;14.00;;;3.60;99.90;;;;;;5048341;28;20037;-75
2023/01/24 10:29:29;;;;;;;30.23;14.15;;;3.60;99.90;;;;;;5054298;28;20117;-74
2023/01/24 10:32:22;;;;;;;27.48;13.68;;;3.60;99.90;;;;;;5064932;28;20053;-76
2023/01/24 10:34:59;;;;;;;32.22;13.32;;;3.70;99.90;;;;;;5080282;28;20477;-76
2023/01/24 10:37:28;;;;;;;31.88;13.82;;;3.70;99.90;;;;;;5054137;28;20041;-75
2023/01/24 10:39:54;;;;;;;31.67;13.23;;;3.70;99.90;;;;;;5047781;28;20075;-75
2023/01/24 10:42:31;;;;;;;27.80;13.15;;;3.70;99.90;;;;;;5056928;28;20025;-74
2023/01/24 10:45:13;;;;;;;29.98;12.80;;;3.70;99.90;;;;;;5044578;28;20072;-74
2023/01/24 10:47:47;;;;;;;30.48;12.27;;;3.80;99.90;;;;;;5048961;28;20469;-73
2023/01/24 10:50:15;;;;;;;29.58;14.43;;;3.60;99.90;;;;;;5056845;28;20056;-74
2023/01/24 10:52:42;;;;;;;31.60;14.23;;;3.60;99.90;;;;;;5050796;28;20025;-75
2023/01/24 10:55:22;;;;;;;32.22;13.85;;;3.60;99.90;;;;;;5059624;28;20100;-76
2023/01/24 10:57:52;;;;;;;31.33;13.15;;;3.60;99.90;;;;;;5054418;28;20677;-78
2023/01/24 11:00:30;;;;;;;28.05;12.85;;;3.60;99.90;;;;;;5077997;28;20029;-75
2023/01/24 11:03:03;;;;;;;28.90;12.43;;;3.60;99.90;;;;;;5054964;28;20013;-76
2023/01/24 11:05:39;;;;;;;30.60;14.02;;;3.60;99.90;;;;;;5052445;28;20039;-76
2023/01/24 11:08:05;;;;;;;29.55;13.48;;;3.60;99.90;;;;;;5053118;28;20080;-76
2023/01/24 11:10:38;;;;;;;30.90;14.60;;;3.60;99.90;;;;;;5069517;28;20052;-73
2023/01/24 11:13:38;;;;;;;31.33;14.00;;;3.60;99.90;;;;;;5052365;28;20021;-74
2023/01/24 11:16:21;;;;;;;28.42;13.40;;;3.60;99.90;;;;;;5042502;28;20026;-73
2023/01/24 11:18:52;;;;;;;27.02;12.68;;;3.60;99.90;;;;;;5046317;28;20037;-76
2023/01/24 11:21:19;;;;;;;27.45;12.88;;;3.60;99.90;;;;;;5055034;28;20036;-73
2023/01/24 11:23:45;;;;;;;29.27;13.70;;;3.50;99.90;;;;;;5048066;28;20564;-75
2023/01/24 11:26:27;;;;;;;30.27;13.52;;;3.50;99.90;;;;;;5044015;28;20026;-76
2023/01/24 11:29:07;;;;;;;31.58;13.75;;;3.50;99.90;;;;;;5049803;28;20039;-75
2023/01/24 11:31:37;;;;;;;27.15;12.65;;;3.50;99.90;;;;;;5064277;28;20085;-76
2023/01/24 11:34:24;;;;;;;28.65;13.88;;;3.60;99.90;;;;;;5052175;28;20042;-74
2023/01/24 11:37:30;;;;;;;29.05;13.13;;;3.60;99.90;;;;;;5044772;28;20052;-74
2023/01/24 11:40:07;;;;;;;28.98;13.55;;;3.50;99.90;;;;;;5062784;28;20045;-75
2023/01/24 11:43:02;;;;;;;28.75;13.20;;;3.50;99.90;;;;;;5060779;28;20028;-73
2023/01/24 11:45:43;;;;;;;;;;;3.60;99.90;;;;;;5054466;28;20080;-75
2023/01/24 11:48:17;;;;;;;29.88;12.77;;;3.60;99.90;;;;;;5047686;28;19968;-74
2023/01/24 11:51:18;;;;;;;27.73;12.40;;;3.70;99.90;;;;;;5044373;28;20021;-73
2023/01/24 11:53:56;;;;;;;30.48;12.85;;;3.70;99.90;;;;;;5055828;28;20021;-74
2023/01/24 11:56:48;;;;;;;31.15;13.38;;;3.70;99.90;;;;;;5056447;28;20419;-75
2023/01/24 11:59:40;;;;;;;25.75;12.27;;;3.70;99.90;;;;;;5059491;28;20059;-73
2023/01/24 12:02:32;;;;;;;27.67;12.75;;;3.60;99.90;;;;;;5056073;28;20048;-74
2023/01/24 12:05:28;;;;;;;29.05;13.10;;;3.60;99.90;;;;;;5058566;28;20120;-74
2023/01/24 12:08:25;;;;;;;28.75;12.20;;;3.60;99.90;;;;;;5057806;28;20037;-74
2023/01/24 12:11:20;;;;;;;29.95;13.40;;;3.60;99.90;;;;;;5057008;28;20528;-74
2023/01/24 12:14:09;;;;;;;28.80;12.88;;;3.60;99.90;;;;;;5058209;28;20040;-75
2023/01/24 12:17:02;;;;;;;27.73;12.95;;;3.70;99.90;;;;;;5058930;28;20025;-75
2023/01/24 12:19:55;;;;;;;29.38;13.20;;;3.70;99.90;;;;;;5058914;28;20033;-74
2023/01/24 12:22:27;;;;;;;26.20;12.43;;;3.70;99.90;;;;;;5057197;28;20025;-75
2023/01/24 12:25:14;;;;;;;30.80;13.60;;;3.80;99.90;;;;;;5060116;28;20044;-74
2023/01/24 12:27:42;;;;;;;25.67;12.60;;;3.80;99.90;;;;;;5058907;28;20017;-73
2023/01/24 12:30:42;;;;;;;30.38;13.45;;;3.80;99.90;;;;;;5062137;28;20092;-75
2023/01/24 12:33:26;;;;;;;24.30;12.23;;;3.80;99.90;;;;;;5061732;28;20036;-73
2023/01/24 12:35:58;;;;;;;27.77;12.60;;;3.70;99.90;;;;;;5062198;28;20600;-74
2023/01/24 12:38:37;;;;;;;28.85;13.18;;;3.70;99.90;;;;;;5063476;28;20029;-73
2023/01/24 12:41:24;;;;;;;27.38;12.85;;;3.80;99.90;;;;;;5062561;28;20025;-74
2023/01/24 12:44:20;;;;;;;26.05;12.30;;;3.80;99.90;;;;;;5062779;28;20108;-72
2023/01/24 12:47:03;;;;;;;26.48;12.07;;;3.80;99.90;;;;;;5061788;28;20029;-73
2023/01/24 12:49:50;;;;;;;31.42;13.55;;;3.80;99.90;;;;;;5062425;28;20021;-74
2023/01/24 12:55:09;;;;;;;28.60;12.65;;;3.70;99.90;;;;;;5158310;23;20058;-76
2023/01/24 12:57:48;;;;;;;31.02;13.73;;;3.70;99.90;;;;;;5020934;28;20052;-74
2023/01/24 13:00:24;;;;;;;29.65;13.52;;;3.70;99.90;;;;;;5025464;28;20026;-75
2023/01/24 13:03:08;;;;;;;28.70;13.27;;;3.70;99.90;;;;;;5024808;28;20121;-74
2023/01/24 13:05:44;;;;;;;29.58;13.25;;;3.70;99.90;;;;;;5025716;28;20042;-76
2023/01/24 13:08:28;;;;;;;28.63;12.02;;;3.80;99.90;;;;;;5021199;28;20134;-75
2023/01/24 13:11:12;;;;;;;27.23;12.80;;;3.80;99.90;;;;;;5006717;28;20035;-74
2023/01/24 13:14:04;;;;;;;29.48;13.07;;;3.70;99.90;;;;;;5024647;28;20030;-75
2023/01/24 13:16:38;;;;;;;27.85;13.15;;;3.70;99.90;;;;;;5026029;28;20100;-74
2023/01/24 13:19:42;;;;;;;33.50;12.77;;;3.70;99.90;;;;;;5040613;28;20054;-74
2023/01/24 13:22:28;;;;;;;29.23;13.27;;;3.70;99.90;;;;;;5038897;28;20033;-75
2023/01/24 13:24:54;;;;;;;30.83;13.88;;;3.70;99.90;;;;;;5024107;28;20041;-73
2023/01/24 13:27:39;;;;;;;27.15;12.57;;;3.60;99.90;;;;;;5025336;28;20461;-73
2023/01/24 13:30:21;;;;;;;32.65;13.93;;;3.60;99.90;;;;;;5025653;28;20025;-74
2023/01/24 13:32:48;;;;;;;29.55;13.10;;;3.60;99.90;;;;;;5024620;28;20114;-74
2023/01/24 13:35:23;;;;;;;30.30;13.48;;;3.60;99.90;;;;;;5041579;28;20033;-74